sensor_id;sensor_type;location;lat;lon;timestamp;temperature;humidity
15343;DHT22;7771;48.478;8.936;2024-01-27T00:01:12;5.30;99.90
15343;DHT22;7771;48.478;8.936;2024-01-27T00:03:38;5.20;99.90
15343;DHT22;7771;48.478;8.936;2024-01-27T00:06:05;5.20;99.90
15343;DHT22;7771;48.478;8.936;2024-01-27T00:08:32;5.10;99.90
15343;DHT22;7771;48.478;8.936;2024-01-27T00:11:00;5.10;99.90
15343;DHT22;7771;48.478;8.936;2024-01-27T00:13:27;5.00;99.90
15343;DHT22;7771;48.478;8.936;2024-01-27T00:15:54;5.00;99.90
15343;DHT22;7771;48.478;8.936;2024-01-27T00:18:21;5.00;99.90
15343;DHT22;7771;48.478;8.936;2024-01-27T00:20:48;5.00;99.90
15343;DHT22;7771;48.478;8.936;2024-01-27T00:25:43;4.90;99.90
15343;DHT22;7771;48.478;8.936;2024-01-27T00:28:10;4.80;99.90
15343;DHT22;7771;48.478;8.936;2024-01-27T00:30:37;4.70;99.90
15343;DHT22;7771;48.478;8.936;2024-01-27T00:33:05;4.70;99.90
15343;DHT22;7771;48.478;8.936;2024-01-27T00:35:32;4.70;99.90
15343;DHT22;7771;48.478;8.936;2024-01-27T00:37:59;4.70;99.90
15343;DHT22;7771;48.478;8.936;2024-01-27T00:40:26;4.60;99.90
15343;DHT22;7771;48.478;8.936;2024-01-27T00:45:39;4.50;99.90
15343;DHT22;7771;48.478;8.936;2024-01-27T00:48:06;4.50;99.90
15343;DHT22;7771;48.478;8.936;2024-01-27T00:50:33;4.50;99.90
15343;DHT22;7771;48.478;8.936;2024-01-27T00:52:59;4.40;99.90
15343;DHT22;7771;48.478;8.936;2024-01-27T00:55:26;4.40;99.90
15343;DHT22;7771;48.478;8.936;2024-01-27T00:57:54;4.40;99.90
15343;DHT22;7771;48.478;8.936;2024-01-27T01:00:20;4.40;99.90
15343;DHT22;7771;48.478;8.936;2024-01-27T01:02:48;4.30;99.90
15343;DHT22;7771;48.478;8.936;2024-01-27T01:05:15;4.30;99.90
15343;DHT22;7771;48.478;8.936;2024-01-27T01:07:42;4.30;99.90
15343;DHT22;7771;48.478;8.936;2024-01-27T01:10:09;4.30;99.90
15343;DHT22;7771;48.478;8.936;2024-01-27T01:12:36;4.30;99.90
15343;DHT22;7771;48.478;8.936;2024-01-27T01:15:02;4.30;99.90
15343;DHT22;7771;48.478;8.936;2024-01-27T01:17:30;4.30;99.90
15343;DHT22;7771;48.478;8.936;2024-01-27T01:19:56;4.30;99.90
15343;DHT22;7771;48.478;8.936;2024-01-27T01:22:23;4.30;99.90
15343;DHT22;7771;48.478;8.936;2024-01-27T01:24:50;4.30;99.90
15343;DHT22;7771;48.478;8.936;2024-01-27T01:27:17;4.20;99.90
15343;DHT22;7771;48.478;8.936;2024-01-27T01:32:12;4.20;99.90
15343;DHT22;7771;48.478;8.936;2024-01-27T01:34:41;4.10;99.90
15343;DHT22;7771;48.478;8.936;2024-01-27T01:37:07;4.10;99.90
15343;DHT22;7771;48.478;8.936;2024-01-27T01:39:35;4.00;99.90
15343;DHT22;7771;48.478;8.936;2024-01-27T01:42:01;4.00;99.90
15343;DHT22;7771;48.478;8.936;2024-01-27T01:44:29;4.00;99.90
15343;DHT22;7771;48.478;8.936;2024-01-27T01:46:55;4.00;99.90
15343;DHT22;7771;48.478;8.936;2024-01-27T01:49:23;4.00;99.90
15343;DHT22;7771;48.478;8.936;2024-01-27T01:54:18;4.00;99.90
15343;DHT22;7771;48.478;8.936;2024-01-27T01:56:45;3.90;99.90
15343;DHT22;7771;48.478;8.936;2024-01-27T01:59:12;3.90;99.90
15343;DHT22;7771;48.478;8.936;2024-01-27T02:01:39;4.00;99.90
15343;DHT22;7771;48.478;8.936;2024-01-27T02:04:07;3.90;99.90
15343;DHT22;7771;48.478;8.936;2024-01-27T02:06:34;3.80;99.90
15343;DHT22;7771;48.478;8.936;2024-01-27T02:09:00;3.80;99.90
15343;DHT22;7771;48.478;8.936;2024-01-27T02:11:28;3.80;99.90
15343;DHT22;7771;48.478;8.936;2024-01-27T02:13:55;3.70;99.90
15343;DHT22;7771;48.478;8.936;2024-01-27T02:16:22;3.70;99.90
15343;DHT22;7771;48.478;8.936;2024-01-27T02:21:16;3.70;99.90
15343;DHT22;7771;48.478;8.936;2024-01-27T02:23:44;3.60;99.90
15343;DHT22;7771;48.478;8.936;2024-01-27T02:28:40;3.50;99.90
15343;DHT22;7771;48.478;8.936;2024-01-27T02:33:36;3.40;99.90
15343;DHT22;7771;48.478;8.936;2024-01-27T02:36:02;3.40;99.90
15343;DHT22;7771;48.478;8.936;2024-01-27T02:38:29;3.40;99.90
15343;DHT22;7771;48.478;8.936;2024-01-27T02:40:56;3.40;99.90
15343;DHT22;7771;48.478;8.936;2024-01-27T02:43:23;3.40;99.90
15343;DHT22;7771;48.478;8.936;2024-01-27T02:45:50;3.40;99.90
15343;DHT22;7771;48.478;8.936;2024-01-27T02:48:17;3.40;99.90
15343;DHT22;7771;48.478;8.936;2024-01-27T02:50:44;3.40;99.90
15343;DHT22;7771;48.478;8.936;2024-01-27T02:53:12;3.30;99.90
15343;DHT22;7771;48.478;8.936;2024-01-27T02:55:39;3.30;99.90
15343;DHT22;7771;48.478;8.936;2024-01-27T02:58:06;3.30;99.90
15343;DHT22;7771;48.478;8.936;2024-01-27T03:00:33;3.30;99.90
15343;DHT22;7771;48.478;8.936;2024-01-27T03:03:01;3.20;99.90
15343;DHT22;7771;48.478;8.936;2024-01-27T03:05:29;3.20;99.90
15343;DHT22;7771;48.478;8.936;2024-01-27T03:07:55;3.20;99.90
15343;DHT22;7771;48.478;8.936;2024-01-27T03:10:22;3.10;99.90
15343;DHT22;7771;48.478;8.936;2024-01-27T03:12:49;3.10;99.90
15343;DHT22;7771;48.478;8.936;2024-01-27T03:15:17;3.10;99.90
15343;DHT22;7771;48.478;8.936;2024-01-27T03:17:43;3.10;99.90
15343;DHT22;7771;48.478;8.936;2024-01-27T03:20:11;3.10;99.90
15343;DHT22;7771;48.478;8.936;2024-01-27T03:22:37;3.10;99.90
15343;DHT22;7771;48.478;8.936;2024-01-27T03:27:33;3.10;99.90
15343;DHT22;7771;48.478;8.936;2024-01-27T03:30:00;3.10;99.90
15343;DHT22;7771;48.478;8.936;2024-01-27T03:37:57;3.10;99.90
15343;DHT22;7771;48.478;8.936;2024-01-27T03:40:24;3.00;99.90
15343;DHT22;7771;48.478;8.936;2024-01-27T03:45:19;2.90;99.90
15343;DHT22;7771;48.478;8.936;2024-01-27T03:47:46;2.80;99.90
15343;DHT22;7771;48.478;8.936;2024-01-27T03:50:13;2.80;99.90
15343;DHT22;7771;48.478;8.936;2024-01-27T03:52:41;2.80;99.90
15343;DHT22;7771;48.478;8.936;2024-01-27T03:55:06;2.80;99.90
15343;DHT22;7771;48.478;8.936;2024-01-27T03:57:35;2.70;99.90
15343;DHT22;7771;48.478;8.936;2024-01-27T04:00:03;2.70;99.90
15343;DHT22;7771;48.478;8.936;2024-01-27T04:02:30;2.70;99.90
15343;DHT22;7771;48.478;8.936;2024-01-27T04:04:58;2.70;99.90
15343;DHT22;7771;48.478;8.936;2024-01-27T04:07:24;2.60;99.90
15343;DHT22;7771;48.478;8.936;2024-01-27T04:09:52;2.70;99.90
15343;DHT22;7771;48.478;8.936;2024-01-27T04:12:19;2.70;99.90
15343;DHT22;7771;48.478;8.936;2024-01-27T04:17:14;2.70;99.90
15343;DHT22;7771;48.478;8.936;2024-01-27T04:19:42;2.70;99.90
15343;DHT22;7771;48.478;8.936;2024-01-27T04:22:09;2.70;99.90
15343;DHT22;7771;48.478;8.936;2024-01-27T04:27:04;2.60;99.90
15343;DHT22;7771;48.478;8.936;2024-01-27T04:29:32;2.60;99.90
15343;DHT22;7771;48.478;8.936;2024-01-27T04:31:59;2.60;99.90
15343;DHT22;7771;48.478;8.936;2024-01-27T04:34:25;2.50;99.90
15343;DHT22;7771;48.478;8.936;2024-01-27T04:39:21;2.50;99.90
15343;DHT22;7771;48.478;8.936;2024-01-27T04:41:48;2.50;99.90
15343;DHT22;7771;48.478;8.936;2024-01-27T04:44:15;2.50;99.90
15343;DHT22;7771;48.478;8.936;2024-01-27T04:46:41;2.50;99.90
15343;DHT22;7771;48.478;8.936;2024-01-27T04:49:09;2.50;99.90
15343;DHT22;7771;48.478;8.936;2024-01-27T04:51:36;2.50;99.90
15343;DHT22;7771;48.478;8.936;2024-01-27T04:54:02;2.40;99.90
15343;DHT22;7771;48.478;8.936;2024-01-27T04:56:29;2.40;99.90
15343;DHT22;7771;48.478;8.936;2024-01-27T04:58:58;2.40;99.90
15343;DHT22;7771;48.478;8.936;2024-01-27T05:01:25;2.40;99.90
15343;DHT22;7771;48.478;8.936;2024-01-27T05:03:52;2.40;99.90
15343;DHT22;7771;48.478;8.936;2024-01-27T05:06:20;2.40;99.90
15343;DHT22;7771;48.478;8.936;2024-01-27T05:08:47;2.30;99.90
15343;DHT22;7771;48.478;8.936;2024-01-27T05:11:15;2.30;99.90
15343;DHT22;7771;48.478;8.936;2024-01-27T05:13:42;2.20;99.90
15343;DHT22;7771;48.478;8.936;2024-01-27T05:16:10;2.20;99.90
15343;DHT22;7771;48.478;8.936;2024-01-27T05:18:36;2.20;99.90
15343;DHT22;7771;48.478;8.936;2024-01-27T05:21:04;2.20;99.90
15343;DHT22;7771;48.478;8.936;2024-01-27T05:23:32;2.10;99.90
15343;DHT22;7771;48.478;8.936;2024-01-27T05:25:59;2.10;99.90
15343;DHT22;7771;48.478;8.936;2024-01-27T05:28:26;2.10;99.90
15343;DHT22;7771;48.478;8.936;2024-01-27T05:33:20;2.00;99.90
15343;DHT22;7771;48.478;8.936;2024-01-27T05:35:47;1.90;99.90
15343;DHT22;7771;48.478;8.936;2024-01-27T05:38:15;1.90;99.90
15343;DHT22;7771;48.478;8.936;2024-01-27T05:40:43;1.90;99.90
15343;DHT22;7771;48.478;8.936;2024-01-27T05:43:09;1.90;99.90
15343;DHT22;7771;48.478;8.936;2024-01-27T05:45:37;1.90;99.90
15343;DHT22;7771;48.478;8.936;2024-01-27T05:48:05;1.90;99.90
15343;DHT22;7771;48.478;8.936;2024-01-27T05:50:33;1.90;99.90
15343;DHT22;7771;48.478;8.936;2024-01-27T05:53:01;1.90;99.90
15343;DHT22;7771;48.478;8.936;2024-01-27T05:55:27;1.90;99.90
15343;DHT22;7771;48.478;8.936;2024-01-27T05:57:54;1.90;99.90
15343;DHT22;7771;48.478;8.936;2024-01-27T06:00:21;1.80;99.90
15343;DHT22;7771;48.478;8.936;2024-01-27T06:02:49;1.80;99.90
15343;DHT22;7771;48.478;8.936;2024-01-27T06:05:17;1.80;99.90
15343;DHT22;7771;48.478;8.936;2024-01-27T06:07:44;1.80;99.90
15343;DHT22;7771;48.478;8.936;2024-01-27T06:12:53;1.80;99.90
15343;DHT22;7771;48.478;8.936;2024-01-27T06:15:20;1.80;99.90
15343;DHT22;7771;48.478;8.936;2024-01-27T06:17:47;1.70;99.90
15343;DHT22;7771;48.478;8.936;2024-01-27T06:20:14;1.70;99.90
15343;DHT22;7771;48.478;8.936;2024-01-27T06:22:42;1.70;99.90
15343;DHT22;7771;48.478;8.936;2024-01-27T06:25:09;1.70;99.90
15343;DHT22;7771;48.478;8.936;2024-01-27T06:27:36;1.70;99.90
15343;DHT22;7771;48.478;8.936;2024-01-27T06:30:03;1.70;99.90
15343;DHT22;7771;48.478;8.936;2024-01-27T06:32:30;1.70;99.90
15343;DHT22;7771;48.478;8.936;2024-01-27T06:34:56;1.70;99.90
15343;DHT22;7771;48.478;8.936;2024-01-27T06:37:24;1.70;99.90
15343;DHT22;7771;48.478;8.936;2024-01-27T06:42:18;1.80;99.90
15343;DHT22;7771;48.478;8.936;2024-01-27T06:44:46;1.70;99.90
15343;DHT22;7771;48.478;8.936;2024-01-27T06:47:14;1.70;99.90
15343;DHT22;7771;48.478;8.936;2024-01-27T06:49:41;1.70;99.90
15343;DHT22;7771;48.478;8.936;2024-01-27T06:52:08;1.60;99.90
15343;DHT22;7771;48.478;8.936;2024-01-27T06:54:36;1.60;99.90
15343;DHT22;7771;48.478;8.936;2024-01-27T06:57:03;1.60;99.90
15343;DHT22;7771;48.478;8.936;2024-01-27T06:59:30;1.60;99.90
15343;DHT22;7771;48.478;8.936;2024-01-27T07:01:57;1.60;99.90
15343;DHT22;7771;48.478;8.936;2024-01-27T07:04:24;1.70;99.90
15343;DHT22;7771;48.478;8.936;2024-01-27T07:06:53;1.80;99.90
15343;DHT22;7771;48.478;8.936;2024-01-27T07:09:19;1.80;99.90
15343;DHT22;7771;48.478;8.936;2024-01-27T07:11:47;1.80;99.90
15343;DHT22;7771;48.478;8.936;2024-01-27T07:14:14;1.80;99.90
15343;DHT22;7771;48.478;8.936;2024-01-27T07:16:41;1.80;99.90
15343;DHT22;7771;48.478;8.936;2024-01-27T07:19:09;1.80;99.90
15343;DHT22;7771;48.478;8.936;2024-01-27T07:21:36;1.80;99.90
15343;DHT22;7771;48.478;8.936;2024-01-27T07:24:04;1.80;99.90
15343;DHT22;7771;48.478;8.936;2024-01-27T07:29:00;1.80;99.90
15343;DHT22;7771;48.478;8.936;2024-01-27T07:33:55;1.90;99.90
15343;DHT22;7771;48.478;8.936;2024-01-27T07:36:22;1.90;99.90
15343;DHT22;7771;48.478;8.936;2024-01-27T07:38:49;1.90;99.90
15343;DHT22;7771;48.478;8.936;2024-01-27T07:41:16;2.00;99.90
15343;DHT22;7771;48.478;8.936;2024-01-27T07:43:44;2.00;99.90
15343;DHT22;7771;48.478;8.936;2024-01-27T07:46:10;2.00;99.90
15343;DHT22;7771;48.478;8.936;2024-01-27T07:48:38;2.00;99.90
15343;DHT22;7771;48.478;8.936;2024-01-27T07:51:04;2.00;99.90
15343;DHT22;7771;48.478;8.936;2024-01-27T07:53:32;2.10;99.90
15343;DHT22;7771;48.478;8.936;2024-01-27T07:55:59;2.20;99.90
15343;DHT22;7771;48.478;8.936;2024-01-27T07:58:26;2.20;99.90
15343;DHT22;7771;48.478;8.936;2024-01-27T08:03:22;2.40;99.90
15343;DHT22;7771;48.478;8.936;2024-01-27T08:05:49;2.40;99.90
15343;DHT22;7771;48.478;8.936;2024-01-27T08:08:16;2.40;99.90
15343;DHT22;7771;48.478;8.936;2024-01-27T08:10:44;2.50;99.90
15343;DHT22;7771;48.478;8.936;2024-01-27T08:13:11;2.50;99.90
15343;DHT22;7771;48.478;8.936;2024-01-27T08:15:38;2.60;99.90
15343;DHT22;7771;48.478;8.936;2024-01-27T08:18:05;2.70;99.90
15343;DHT22;7771;48.478;8.936;2024-01-27T08:20:33;2.70;99.90
15343;DHT22;7771;48.478;8.936;2024-01-27T08:23:00;2.70;99.90
15343;DHT22;7771;48.478;8.936;2024-01-27T08:25:27;2.70;99.90
15343;DHT22;7771;48.478;8.936;2024-01-27T08:27:54;2.80;99.90
15343;DHT22;7771;48.478;8.936;2024-01-27T08:32:49;2.70;99.90
15343;DHT22;7771;48.478;8.936;2024-01-27T08:35:15;2.80;99.90
15343;DHT22;7771;48.478;8.936;2024-01-27T08:37:43;2.80;99.90
15343;DHT22;7771;48.478;8.936;2024-01-27T08:40:11;2.90;99.90
15343;DHT22;7771;48.478;8.936;2024-01-27T08:42:37;2.90;99.90
15343;DHT22;7771;48.478;8.936;2024-01-27T08:45:04;2.90;99.90
15343;DHT22;7771;48.478;8.936;2024-01-27T08:47:31;3.00;99.90
15343;DHT22;7771;48.478;8.936;2024-01-27T08:49:57;3.10;99.90
15343;DHT22;7771;48.478;8.936;2024-01-27T08:52:25;3.10;99.90
15343;DHT22;7771;48.478;8.936;2024-01-27T08:54:53;3.10;99.90
15343;DHT22;7771;48.478;8.936;2024-01-27T08:57:20;3.10;99.90
15343;DHT22;7771;48.478;8.936;2024-01-27T08:59:47;3.10;99.90
15343;DHT22;7771;48.478;8.936;2024-01-27T09:02:14;3.20;99.90
15343;DHT22;7771;48.478;8.936;2024-01-27T09:04:41;3.20;99.90
15343;DHT22;7771;48.478;8.936;2024-01-27T09:07:09;3.10;99.90
15343;DHT22;7771;48.478;8.936;2024-01-27T09:09:36;3.30;99.90
15343;DHT22;7771;48.478;8.936;2024-01-27T09:12:03;3.30;99.90
15343;DHT22;7771;48.478;8.936;2024-01-27T09:14:30;3.30;99.90
15343;DHT22;7771;48.478;8.936;2024-01-27T09:16:57;3.40;99.90
15343;DHT22;7771;48.478;8.936;2024-01-27T09:19:26;3.40;99.90
15343;DHT22;7771;48.478;8.936;2024-01-27T09:21:52;3.40;99.90
15343;DHT22;7771;48.478;8.936;2024-01-27T09:24:21;3.40;99.90
15343;DHT22;7771;48.478;8.936;2024-01-27T09:26:48;3.50;99.90
15343;DHT22;7771;48.478;8.936;2024-01-27T09:29:15;3.60;99.90
15343;DHT22;7771;48.478;8.936;2024-01-27T09:31:42;3.60;99.90
15343;DHT22;7771;48.478;8.936;2024-01-27T09:34:08;3.50;99.90
15343;DHT22;7771;48.478;8.936;2024-01-27T09:36:35;3.60;99.90
15343;DHT22;7771;48.478;8.936;2024-01-27T09:39:02;3.60;99.90
15343;DHT22;7771;48.478;8.936;2024-01-27T09:41:31;3.60;99.90
15343;DHT22;7771;48.478;8.936;2024-01-27T09:44:02;3.60;99.90
15343;DHT22;7771;48.478;8.936;2024-01-27T09:48:56;3.70;99.90
15343;DHT22;7771;48.478;8.936;2024-01-27T09:51:24;3.80;99.90
15343;DHT22;7771;48.478;8.936;2024-01-27T09:53:51;3.80;99.90
15343;DHT22;7771;48.478;8.936;2024-01-27T09:56:17;3.90;99.90
15343;DHT22;7771;48.478;8.936;2024-01-27T09:58:46;3.90;99.90
15343;DHT22;7771;48.478;8.936;2024-01-27T10:03:41;4.10;99.90
15343;DHT22;7771;48.478;8.936;2024-01-27T10:11:08;4.10;99.90
15343;DHT22;7771;48.478;8.936;2024-01-27T10:13:33;4.10;99.90
15343;DHT22;7771;48.478;8.936;2024-01-27T10:16:02;4.10;99.90
15343;DHT22;7771;48.478;8.936;2024-01-27T10:18:29;4.10;99.90
15343;DHT22;7771;48.478;8.936;2024-01-27T10:20:56;4.10;99.90
15343;DHT22;7771;48.478;8.936;2024-01-27T10:23:23;4.10;99.90
15343;DHT22;7771;48.478;8.936;2024-01-27T10:25:50;4.20;99.90
15343;DHT22;7771;48.478;8.936;2024-01-27T10:28:17;4.20;99.90
15343;DHT22;7771;48.478;8.936;2024-01-27T10:35:42;4.40;99.90
15343;DHT22;7771;48.478;8.936;2024-01-27T10:38:08;4.40;99.90
15343;DHT22;7771;48.478;8.936;2024-01-27T10:40:36;4.50;99.90
15343;DHT22;7771;48.478;8.936;2024-01-27T10:43:06;4.50;99.90
15343;DHT22;7771;48.478;8.936;2024-01-27T10:45:36;4.60;99.90
15343;DHT22;7771;48.478;8.936;2024-01-27T10:48:03;4.70;99.90
15343;DHT22;7771;48.478;8.936;2024-01-27T10:50:31;4.70;99.90
15343;DHT22;7771;48.478;8.936;2024-01-27T10:52:57;4.80;99.90
15343;DHT22;7771;48.478;8.936;2024-01-27T10:55:25;4.80;99.90
15343;DHT22;7771;48.478;8.936;2024-01-27T11:02:48;4.90;99.90
15343;DHT22;7771;48.478;8.936;2024-01-27T11:05:16;4.90;99.90
15343;DHT22;7771;48.478;8.936;2024-01-27T11:07:44;4.80;99.90
15343;DHT22;7771;48.478;8.936;2024-01-27T11:10:11;4.90;99.90
15343;DHT22;7771;48.478;8.936;2024-01-27T11:12:39;4.90;99.90
15343;DHT22;7771;48.478;8.936;2024-01-27T11:15:06;5.00;99.90
15343;DHT22;7771;48.478;8.936;2024-01-27T11:17:39;4.90;99.90
15343;DHT22;7771;48.478;8.936;2024-01-27T11:20:09;5.00;99.90
15343;DHT22;7771;48.478;8.936;2024-01-27T11:22:35;5.00;99.90
15343;DHT22;7771;48.478;8.936;2024-01-27T11:25:08;4.90;99.90
15343;DHT22;7771;48.478;8.936;2024-01-27T11:27:35;4.90;99.90
15343;DHT22;7771;48.478;8.936;2024-01-27T11:30:02;4.90;99.90
15343;DHT22;7771;48.478;8.936;2024-01-27T11:34:57;4.90;99.90
15343;DHT22;7771;48.478;8.936;2024-01-27T11:37:25;5.00;99.90
15343;DHT22;7771;48.478;8.936;2024-01-27T11:40:02;5.00;99.90
15343;DHT22;7771;48.478;8.936;2024-01-27T11:42:21;5.10;99.90
15343;DHT22;7771;48.478;8.936;2024-01-27T11:47:18;5.10;99.90
15343;DHT22;7771;48.478;8.936;2024-01-27T11:49:52;5.20;99.90
15343;DHT22;7771;48.478;8.936;2024-01-27T11:54:56;5.10;99.90
15343;DHT22;7771;48.478;8.936;2024-01-27T11:57:23;5.20;99.90
15343;DHT22;7771;48.478;8.936;2024-01-27T11:59:51;5.20;99.90
15343;DHT22;7771;48.478;8.936;2024-01-27T12:02:18;5.20;99.90
15343;DHT22;7771;48.478;8.936;2024-01-27T12:04:44;5.30;99.90
15343;DHT22;7771;48.478;8.936;2024-01-27T12:07:13;5.30;99.90
15343;DHT22;7771;48.478;8.936;2024-01-27T12:09:40;5.30;99.90
15343;DHT22;7771;48.478;8.936;2024-01-27T12:17:04;5.20;99.90
15343;DHT22;7771;48.478;8.936;2024-01-27T12:19:31;5.20;99.90
15343;DHT22;7771;48.478;8.936;2024-01-27T12:22:00;5.20;99.90
15343;DHT22;7771;48.478;8.936;2024-01-27T12:24:27;5.30;99.90
15343;DHT22;7771;48.478;8.936;2024-01-27T12:26:55;5.30;99.90
15343;DHT22;7771;48.478;8.936;2024-01-27T12:29:22;5.40;99.90
15343;DHT22;7771;48.478;8.936;2024-01-27T12:31:50;5.30;99.90
15343;DHT22;7771;48.478;8.936;2024-01-27T12:34:17;5.40;99.90
15343;DHT22;7771;48.478;8.936;2024-01-27T12:36:44;5.40;99.90
15343;DHT22;7771;48.478;8.936;2024-01-27T12:39:11;5.40;99.90
15343;DHT22;7771;48.478;8.936;2024-01-27T12:41:39;5.50;99.90
15343;DHT22;7771;48.478;8.936;2024-01-27T12:44:07;5.60;99.90
15343;DHT22;7771;48.478;8.936;2024-01-27T12:46:34;5.60;99.90
15343;DHT22;7771;48.478;8.936;2024-01-27T12:49:02;5.60;99.90
15343;DHT22;7771;48.478;8.936;2024-01-27T12:51:31;5.60;99.90
15343;DHT22;7771;48.478;8.936;2024-01-27T12:56:27;5.60;99.90
15343;DHT22;7771;48.478;8.936;2024-01-27T13:01:23;5.70;99.90
15343;DHT22;7771;48.478;8.936;2024-01-27T13:03:49;5.70;99.90
15343;DHT22;7771;48.478;8.936;2024-01-27T13:06:16;5.70;99.90
15343;DHT22;7771;48.478;8.936;2024-01-27T13:08:43;5.70;99.90
15343;DHT22;7771;48.478;8.936;2024-01-27T13:11:10;5.60;99.90
15343;DHT22;7771;48.478;8.936;2024-01-27T13:13:37;5.80;99.90
15343;DHT22;7771;48.478;8.936;2024-01-27T13:16:04;5.80;99.90
15343;DHT22;7771;48.478;8.936;2024-01-27T13:18:32;5.80;99.90
15343;DHT22;7771;48.478;8.936;2024-01-27T13:21:00;5.90;99.90
15343;DHT22;7771;48.478;8.936;2024-01-27T13:23:27;5.90;99.90
15343;DHT22;7771;48.478;8.936;2024-01-27T13:25:54;5.90;99.90
15343;DHT22;7771;48.478;8.936;2024-01-27T13:28:22;5.90;99.90
15343;DHT22;7771;48.478;8.936;2024-01-27T13:30:48;6.00;99.90
15343;DHT22;7771;48.478;8.936;2024-01-27T13:33:16;6.00;99.90
15343;DHT22;7771;48.478;8.936;2024-01-27T13:35:43;6.00;99.90
15343;DHT22;7771;48.478;8.936;2024-01-27T13:38:10;6.10;99.90
15343;DHT22;7771;48.478;8.936;2024-01-27T13:40:36;6.10;99.90
15343;DHT22;7771;48.478;8.936;2024-01-27T13:43:04;6.10;99.90
15343;DHT22;7771;48.478;8.936;2024-01-27T13:45:31;6.10;99.90
15343;DHT22;7771;48.478;8.936;2024-01-27T13:47:59;6.10;99.90
15343;DHT22;7771;48.478;8.936;2024-01-27T13:50:26;6.20;99.90
15343;DHT22;7771;48.478;8.936;2024-01-27T13:52:54;6.20;99.90
15343;DHT22;7771;48.478;8.936;2024-01-27T13:55:20;6.40;99.90
15343;DHT22;7771;48.478;8.936;2024-01-27T13:57:47;6.30;99.90
15343;DHT22;7771;48.478;8.936;2024-01-27T14:02:42;6.40;99.90
15343;DHT22;7771;48.478;8.936;2024-01-27T14:05:10;6.40;99.90
15343;DHT22;7771;48.478;8.936;2024-01-27T14:07:37;6.40;99.90
15343;DHT22;7771;48.478;8.936;2024-01-27T14:10:05;6.40;99.90
15343;DHT22;7771;48.478;8.936;2024-01-27T14:15:04;6.50;99.90
15343;DHT22;7771;48.478;8.936;2024-01-27T14:17:33;6.50;99.90
15343;DHT22;7771;48.478;8.936;2024-01-27T14:19:59;6.50;99.90
15343;DHT22;7771;48.478;8.936;2024-01-27T14:22:26;6.50;99.90
15343;DHT22;7771;48.478;8.936;2024-01-27T14:24:53;6.60;99.90
15343;DHT22;7771;48.478;8.936;2024-01-27T14:27:20;6.50;99.90
15343;DHT22;7771;48.478;8.936;2024-01-27T14:29:47;6.50;99.90
15343;DHT22;7771;48.478;8.936;2024-01-27T14:32:15;6.60;99.90
15343;DHT22;7771;48.478;8.936;2024-01-27T14:34:42;6.60;99.90
15343;DHT22;7771;48.478;8.936;2024-01-27T14:37:09;6.60;99.90
15343;DHT22;7771;48.478;8.936;2024-01-27T14:39:35;6.60;99.90
15343;DHT22;7771;48.478;8.936;2024-01-27T14:42:04;6.60;99.90
15343;DHT22;7771;48.478;8.936;2024-01-27T14:46:59;6.60;99.90
15343;DHT22;7771;48.478;8.936;2024-01-27T14:49:27;6.60;99.90
15343;DHT22;7771;48.478;8.936;2024-01-27T14:51:55;6.70;99.90
15343;DHT22;7771;48.478;8.936;2024-01-27T14:54:22;6.60;99.90
15343;DHT22;7771;48.478;8.936;2024-01-27T14:59:17;6.70;99.90
15343;DHT22;7771;48.478;8.936;2024-01-27T15:04:14;6.70;99.90
15343;DHT22;7771;48.478;8.936;2024-01-27T15:06:40;6.70;99.90
15343;DHT22;7771;48.478;8.936;2024-01-27T15:11:36;6.70;99.90
15343;DHT22;7771;48.478;8.936;2024-01-27T15:14:04;6.60;99.90
15343;DHT22;7771;48.478;8.936;2024-01-27T15:16:30;6.60;99.90
15343;DHT22;7771;48.478;8.936;2024-01-27T15:18:57;6.70;99.90
15343;DHT22;7771;48.478;8.936;2024-01-27T15:21:24;6.60;99.90
15343;DHT22;7771;48.478;8.936;2024-01-27T15:23:51;6.60;99.90
15343;DHT22;7771;48.478;8.936;2024-01-27T15:26:18;6.70;99.90
15343;DHT22;7771;48.478;8.936;2024-01-27T15:28:45;6.60;99.90
15343;DHT22;7771;48.478;8.936;2024-01-27T15:31:12;6.60;99.90
15343;DHT22;7771;48.478;8.936;2024-01-27T15:33:39;6.60;99.90
15343;DHT22;7771;48.478;8.936;2024-01-27T15:36:07;6.60;99.90
15343;DHT22;7771;48.478;8.936;2024-01-27T15:38:34;6.60;99.90
15343;DHT22;7771;48.478;8.936;2024-01-27T15:41:01;6.60;99.90
15343;DHT22;7771;48.478;8.936;2024-01-27T15:43:29;6.60;99.90
15343;DHT22;7771;48.478;8.936;2024-01-27T15:48:23;6.50;99.90
15343;DHT22;7771;48.478;8.936;2024-01-27T15:53:19;6.60;99.90
15343;DHT22;7771;48.478;8.936;2024-01-27T15:55:47;6.50;99.90
15343;DHT22;7771;48.478;8.936;2024-01-27T15:58:13;6.50;99.90
15343;DHT22;7771;48.478;8.936;2024-01-27T16:00:41;6.40;99.90
15343;DHT22;7771;48.478;8.936;2024-01-27T16:03:07;6.40;99.90
15343;DHT22;7771;48.478;8.936;2024-01-27T16:05:34;6.40;99.90
15343;DHT22;7771;48.478;8.936;2024-01-27T16:08:01;6.40;99.90
15343;DHT22;7771;48.478;8.936;2024-01-27T16:10:30;6.30;99.90
15343;DHT22;7771;48.478;8.936;2024-01-27T16:15:25;6.30;99.90
15343;DHT22;7771;48.478;8.936;2024-01-27T16:17:52;6.10;99.90
15343;DHT22;7771;48.478;8.936;2024-01-27T16:20:19;6.10;99.90
15343;DHT22;7771;48.478;8.936;2024-01-27T16:22:46;6.00;99.90
15343;DHT22;7771;48.478;8.936;2024-01-27T16:25:14;5.90;99.90
15343;DHT22;7771;48.478;8.936;2024-01-27T16:27:40;5.90;99.90
15343;DHT22;7771;48.478;8.936;2024-01-27T16:30:08;5.80;99.90
15343;DHT22;7771;48.478;8.936;2024-01-27T16:32:36;5.70;99.90
15343;DHT22;7771;48.478;8.936;2024-01-27T16:35:04;5.60;99.90
15343;DHT22;7771;48.478;8.936;2024-01-27T16:37:31;5.60;99.90
15343;DHT22;7771;48.478;8.936;2024-01-27T16:39:58;5.50;99.90
15343;DHT22;7771;48.478;8.936;2024-01-27T16:44:54;5.40;99.90
15343;DHT22;7771;48.478;8.936;2024-01-27T16:47:20;5.40;99.90
15343;DHT22;7771;48.478;8.936;2024-01-27T16:49:48;5.30;99.90
15343;DHT22;7771;48.478;8.936;2024-01-27T16:52:16;5.20;99.90
15343;DHT22;7771;48.478;8.936;2024-01-27T16:54:43;5.20;99.90
15343;DHT22;7771;48.478;8.936;2024-01-27T16:57:10;5.10;99.90
15343;DHT22;7771;48.478;8.936;2024-01-27T16:59:37;5.10;99.90
15343;DHT22;7771;48.478;8.936;2024-01-27T17:02:05;5.00;99.90
15343;DHT22;7771;48.478;8.936;2024-01-27T17:06:59;4.90;99.90
15343;DHT22;7771;48.478;8.936;2024-01-27T17:09:27;4.90;99.90
15343;DHT22;7771;48.478;8.936;2024-01-27T17:11:55;4.90;99.90
15343;DHT22;7771;48.478;8.936;2024-01-27T17:14:23;4.80;99.90
15343;DHT22;7771;48.478;8.936;2024-01-27T17:19:19;4.70;99.90
15343;DHT22;7771;48.478;8.936;2024-01-27T17:26:43;4.50;99.90
15343;DHT22;7771;48.478;8.936;2024-01-27T17:34:07;4.40;99.90
15343;DHT22;7771;48.478;8.936;2024-01-27T17:36:35;4.30;99.90
15343;DHT22;7771;48.478;8.936;2024-01-27T17:41:30;4.20;99.90
15343;DHT22;7771;48.478;8.936;2024-01-27T17:43:58;4.20;99.90
15343;DHT22;7771;48.478;8.936;2024-01-27T17:46:25;4.20;99.90
15343;DHT22;7771;48.478;8.936;2024-01-27T17:48:52;4.20;99.90
15343;DHT22;7771;48.478;8.936;2024-01-27T17:51:19;4.10;99.90
15343;DHT22;7771;48.478;8.936;2024-01-27T17:53:46;4.10;99.90
15343;DHT22;7771;48.478;8.936;2024-01-27T17:56:21;4.00;99.90
15343;DHT22;7771;48.478;8.936;2024-01-27T17:58:48;4.00;99.90
15343;DHT22;7771;48.478;8.936;2024-01-27T18:03:44;3.90;99.90
15343;DHT22;7771;48.478;8.936;2024-01-27T18:06:11;3.90;99.90
15343;DHT22;7771;48.478;8.936;2024-01-27T18:08:38;3.90;99.90
15343;DHT22;7771;48.478;8.936;2024-01-27T18:11:05;3.80;99.90
15343;DHT22;7771;48.478;8.936;2024-01-27T18:16:00;3.80;99.90
15343;DHT22;7771;48.478;8.936;2024-01-27T18:18:27;3.70;99.90